Time;durP1;ratioP1;P1;durP2;ratioP2;P2;SDS_P1;SDS_P2;PMS_P1;PMS_P2;Temp;Humidity;BMP_temperature;BMP_pressure;BME280_temperature;BME280_humidity;BME280_pressure;Samples;Min_cycle;Max_cycle;Signal;HPM_P1;HPM_P2
2023/12/23 00:01:13;;;;;;;7.60;1.30;;;7.50;95.20;;;;;;5051203;28;20101;-33
2023/12/23 00:03:39;;;;;;;5.55;1.50;;;7.50;95.20;;;;;;5050982;28;20111;-33
2023/12/23 00:06:04;;;;;;;6.85;1.52;;;7.60;95.20;;;;;;5051179;28;20071;-33
2023/12/23 00:08:30;;;;;;;9.20;1.92;;;7.60;95.20;;;;;;5051033;28;20039;-37
2023/12/23 00:10:55;;;;;;;8.23;1.80;;;7.50;95.20;;;;;;5051218;28;20057;-36
2023/12/23 00:13:21;;;;;;;8.20;1.80;;;7.60;95.20;;;;;;5050980;28;20021;-36
2023/12/23 00:15:47;;;;;;;7.68;1.67;;;7.60;95.20;;;;;;5051124;28;20268;-40
2023/12/23 00:18:12;;;;;;;9.57;1.70;;;7.60;95.10;;;;;;5051198;28;20083;-34
2023/12/23 00:20:38;;;;;;;7.57;1.65;;;7.60;95.20;;;;;;5051227;28;20064;-36
2023/12/23 00:23:04;;;;;;;9.43;1.60;;;7.60;95.10;;;;;;5051366;28;20021;-35
2023/12/23 00:25:29;;;;;;;8.23;1.58;;;7.60;95.10;;;;;;5051344;28;20029;-36
2023/12/23 00:27:55;;;;;;;7.47;1.63;;;7.60;95.10;;;;;;5050905;28;20025;-33
2023/12/23 00:30:21;;;;;;;7.22;1.30;;;7.70;95.10;;;;;;5050806;28;20025;-33
2023/12/23 00:32:46;;;;;;;9.52;1.88;;;7.70;95.10;;;;;;5050870;28;20494;-34
2023/12/23 00:35:12;;;;;;;9.23;2.13;;;7.60;95.00;;;;;;5050757;28;20030;-33
2023/12/23 00:37:38;;;;;;;8.27;1.65;;;7.70;95.00;;;;;;5050849;28;20029;-33
2023/12/23 00:40:06;;;;;;;7.78;1.73;;;7.70;95.00;;;;;;5050639;28;20508;-33
2023/12/23 00:42:32;;;;;;;7.38;1.50;;;7.70;95.10;;;;;;5050849;28;20028;-37
2023/12/23 00:44:57;;;;;;;8.65;2.05;;;7.70;95.10;;;;;;5050712;28;20501;-33
2023/12/23 00:47:23;;;;;;;10.05;1.52;;;7.70;95.10;;;;;;5050766;28;20083;-34
2023/12/23 00:49:49;;;;;;;9.15;1.90;;;7.70;95.10;;;;;;5050337;28;20033;-33
2023/12/23 00:52:14;;;;;;;6.88;1.52;;;7.70;95.10;;;;;;5050794;28;20021;-39
2023/12/23 00:54:40;;;;;;;7.03;1.10;;;7.70;95.10;;;;;;5050575;28;20029;-38
2023/12/23 00:57:05;;;;;;;9.23;1.80;;;7.70;95.10;;;;;;5051414;28;20029;-37
2023/12/23 00:59:31;;;;;;;8.77;1.40;;;7.80;95.10;;;;;;5054025;28;20025;-36
2023/12/23 01:01:57;;;;;;;8.10;1.77;;;7.70;95.10;;;;;;5054076;28;20028;-34
2023/12/23 01:04:22;;;;;;;9.90;1.55;;;7.70;95.10;;;;;;5054389;28;20393;-34
2023/12/23 01:06:48;;;;;;;8.00;1.60;;;7.70;95.00;;;;;;5053855;28;20485;-33
2023/12/23 01:09:13;;;;;;;8.35;1.40;;;7.70;95.00;;;;;;5053969;28;20480;-32
2023/12/23 01:11:39;;;;;;;4.75;1.20;;;7.70;95.00;;;;;;5053835;28;20023;-33
2023/12/23 01:14:05;;;;;;;7.60;1.50;;;7.70;95.10;;;;;;5054086;28;20040;-33
2023/12/23 01:16:30;;;;;;;4.68;1.10;;;7.80;95.10;;;;;;5053878;28;20493;-36
2023/12/23 01:18:56;;;;;;;11.70;2.00;;;7.70;95.10;;;;;;5053823;28;20103;-35
2023/12/23 01:21:22;;;;;;;9.80;1.80;;;7.70;95.00;;;;;;5054111;28;20017;-36
2023/12/23 01:23:47;;;;;;;8.45;1.30;;;7.70;95.00;;;;;;5054150;28;20033;-32
2023/12/23 01:26:13;;;;;;;8.20;1.77;;;7.70;95.00;;;;;;5052313;28;20056;-33
2023/12/23 01:28:39;;;;;;;6.38;1.45;;;7.70;95.00;;;;;;5053652;28;20033;-34
2023/12/23 01:31:05;;;;;;;7.18;1.52;;;7.70;95.10;;;;;;5053622;28;20029;-32
2023/12/23 01:33:30;;;;;;;5.43;1.27;;;7.70;95.00;;;;;;5053348;28;20056;-45
2023/12/23 01:35:56;;;;;;;10.52;1.80;;;7.80;95.10;;;;;;5052169;28;20481;-36
2023/12/23 01:38:22;;;;;;;9.23;1.35;;;7.70;95.10;;;;;;5053540;28;20025;-37
2023/12/23 01:40:47;;;;;;;5.10;1.10;;;7.80;95.10;;;;;;5052003;28;20029;-39
2023/12/23 01:43:13;;;;;;;4.53;1.40;;;7.80;95.10;;;;;;5053298;28;20024;-33
2023/12/23 01:45:39;;;;;;;8.95;2.53;;;7.80;95.10;;;;;;5053368;28;20027;-33
2023/12/23 01:48:06;;;;;;;9.82;2.22;;;7.80;95.10;;;;;;5053077;28;20025;-35
2023/12/23 01:50:32;;;;;;;6.40;1.55;;;7.80;95.10;;;;;;5053170;28;20017;-37
2023/12/23 01:53:00;;;;;;;8.30;1.50;;;7.80;95.10;;;;;;5053046;28;20044;-34
2023/12/23 01:55:27;;;;;;;7.35;1.48;;;7.80;95.10;;;;;;5053102;28;20028;-33
2023/12/23 01:57:54;;;;;;;7.63;1.80;;;7.80;95.10;;;;;;5052975;28;20074;-33
2023/12/23 02:00:20;;;;;;;9.73;1.52;;;7.80;95.10;;;;;;5052798;28;20493;-38
2023/12/23 02:02:47;;;;;;;6.05;1.50;;;7.80;95.10;;;;;;5052783;28;20057;-33
2023/12/23 02:05:13;;;;;;;7.38;1.63;;;7.80;95.10;;;;;;5052936;28;20032;-33
2023/12/23 02:07:39;;;;;;;12.73;1.45;;;7.80;95.10;;;;;;5052912;28;20025;-33
2023/12/23 02:10:06;;;;;;;6.72;1.42;;;7.80;95.20;;;;;;5052799;28;20083;-34
2023/12/23 02:12:43;;;;;;;10.88;1.50;;;7.90;95.20;;;;;;5052742;28;20097;-36
2023/12/23 02:15:10;;;;;;;6.38;1.27;;;7.90;95.20;;;;;;5052798;28;20249;-39
2023/12/23 02:17:38;;;;;;;7.40;1.80;;;7.90;95.20;;;;;;5052694;28;20070;-34
2023/12/23 02:20:03;;;;;;;4.60;1.40;;;7.90;95.20;;;;;;5052616;28;20049;-35
2023/12/23 02:22:29;;;;;;;6.80;1.52;;;7.90;95.20;;;;;;5052588;28;20056;-38
2023/12/23 02:24:55;;;;;;;10.93;1.75;;;8.00;95.20;;;;;;5052596;28;20377;-34
2023/12/23 02:27:30;;;;;;;5.90;1.25;;;8.00;95.20;;;;;;5052533;28;20056;-34
2023/12/23 02:29:59;;;;;;;9.07;1.50;;;8.00;95.20;;;;;;5052395;28;20021;-41
2023/12/23 02:32:26;;;;;;;11.18;2.10;;;8.00;95.20;;;;;;5052256;28;20033;-32
2023/12/23 02:34:53;;;;;;;6.65;1.48;;;8.00;95.20;;;;;;5052263;28;20120;-37
2023/12/23 02:37:18;;;;;;;6.63;1.25;;;8.00;95.20;;;;;;5052285;28;20025;-36
2023/12/23 02:39:44;;;;;;;5.88;1.20;;;8.00;95.20;;;;;;5052250;28;20413;-33
2023/12/23 02:42:09;;;;;;;10.60;1.63;;;8.00;95.50;;;;;;5052261;28;20017;-35
2023/12/23 02:44:35;;;;;;;4.97;1.20;;;8.00;95.30;;;;;;5052134;28;20110;-33
2023/12/23 02:47:01;;;;;;;7.60;1.55;;;8.00;95.30;;;;;;5052229;28;20044;-34
2023/12/23 02:49:26;;;;;;;10.30;2.00;;;8.00;95.30;;;;;;5051786;28;20043;-34
2023/12/23 02:51:52;;;;;;;16.52;2.00;;;8.00;95.30;;;;;;5052071;28;20025;-41
2023/12/23 02:54:17;;;;;;;6.47;1.48;;;8.00;95.30;;;;;;5051976;28;20032;-34
2023/12/23 02:56:43;;;;;;;7.28;1.48;;;8.00;95.30;;;;;;5051922;28;20023;-33
2023/12/23 02:59:08;;;;;;;9.48;1.70;;;8.00;95.30;;;;;;5051790;28;20484;-33
2023/12/23 03:01:34;;;;;;;6.63;0.93;;;8.10;95.40;;;;;;5051860;28;20029;-37
2023/12/23 03:03:59;;;;;;;5.57;1.52;;;8.10;95.40;;;;;;5051911;28;20060;-36
2023/12/23 03:06:25;;;;;;;6.20;1.50;;;8.10;95.40;;;;;;5052032;28;20377;-33
2023/12/23 03:08:50;;;;;;;4.32;1.63;;;8.10;95.40;;;;;;5051607;28;20032;-37
2023/12/23 03:11:16;;;;;;;6.35;1.58;;;8.10;95.40;;;;;;5051832;28;20040;-34
2023/12/23 03:13:41;;;;;;;7.00;2.10;;;8.10;95.40;;;;;;5051580;28;20021;-38
2023/12/23 03:16:17;;;;;;;6.82;2.65;;;8.10;95.40;;;;;;5051914;28;20100;-37
2023/12/23 03:18:43;;;;;;;5.53;2.90;;;8.10;95.40;;;;;;5051204;28;20028;-36
2023/12/23 03:21:08;;;;;;;5.13;2.67;;;8.10;95.50;;;;;;5051249;28;20417;-33
2023/12/23 03:23:34;;;;;;;4.25;3.10;;;8.20;95.60;;;;;;5051550;28;20104;-40
2023/12/23 03:26:00;;;;;;;10.75;3.90;;;8.20;95.60;;;;;;5051846;28;20104;-33
2023/12/23 03:28:25;;;;;;;11.38;4.53;;;8.20;95.70;;;;;;5051520;28;20032;-36
2023/12/23 03:30:51;;;;;;;7.85;3.40;;;8.30;95.90;;;;;;5051387;28;20032;-33
2023/12/23 03:33:17;;;;;;;9.25;4.05;;;8.30;95.90;;;;;;5051085;28;20041;-35
2023/12/23 03:35:42;;;;;;;9.38;4.35;;;8.40;95.90;;;;;;5051398;28;20092;-34
2023/12/23 03:38:08;;;;;;;8.75;4.22;;;8.40;96.00;;;;;;5051427;28;20025;-33
2023/12/23 03:40:34;;;;;;;13.98;4.80;;;8.50;96.10;;;;;;5051206;28;20027;-34
2023/12/23 03:42:59;;;;;;;11.10;4.40;;;8.60;96.20;;;;;;5051369;28;20436;-34
2023/12/23 03:45:25;;;;;;;14.05;4.93;;;8.60;96.20;;;;;;5051281;28;20388;-35
2023/12/23 03:47:51;;;;;;;17.15;4.30;;;8.70;96.30;;;;;;5051250;28;20028;-39
2023/12/23 03:50:17;;;;;;;15.18;3.72;;;8.70;96.20;;;;;;5051230;28;20025;-40
2023/12/23 03:52:42;;;;;;;10.68;3.80;;;8.70;96.50;;;;;;5051144;28;20377;-40
2023/12/23 03:55:10;;;;;;;21.05;4.35;;;8.70;96.30;;;;;;5051162;28;20029;-35
2023/12/23 03:57:35;;;;;;;12.95;3.83;;;8.80;96.40;;;;;;5051273;28;20465;-40
2023/12/23 04:00:01;;;;;;;11.40;3.75;;;8.80;96.30;;;;;;5051081;28;20021;-38
2023/12/23 04:02:26;;;;;;;10.60;2.83;;;8.80;96.30;;;;;;5051037;28;20021;-38
2023/12/23 04:04:52;;;;;;;11.10;3.13;;;8.80;96.30;;;;;;5050890;28;20048;-38
2023/12/23 04:07:17;;;;;;;9.40;2.78;;;8.90;96.30;;;;;;5051301;28;20087;-33
2023/12/23 04:09:43;;;;;;;11.38;2.53;;;8.90;96.20;;;;;;5051119;28;20474;-39
2023/12/23 04:12:10;;;;;;;12.70;2.72;;;8.90;96.20;;;;;;5049654;28;20022;-36
2023/12/23 04:14:37;;;;;;;11.55;2.72;;;9.00;96.20;;;;;;5051080;28;20052;-39
2023/12/23 04:17:03;;;;;;;9.50;2.67;;;9.00;96.10;;;;;;5050862;28;20100;-34
2023/12/23 04:19:29;;;;;;;13.55;2.60;;;9.00;96.00;;;;;;5050944;28;20148;-36
2023/12/23 04:21:54;;;;;;;11.52;2.78;;;9.00;96.00;;;;;;5050862;28;20100;-33
2023/12/23 04:24:20;;;;;;;14.85;3.30;;;9.00;96.00;;;;;;5051040;28;20036;-33
2023/12/23 04:26:46;;;;;;;15.77;3.13;;;9.00;95.80;;;;;;5050730;28;20104;-35
2023/12/23 04:29:11;;;;;;;12.60;2.83;;;9.10;95.80;;;;;;5049457;28;20029;-36
2023/12/23 04:31:39;;;;;;;13.90;3.05;;;9.10;95.70;;;;;;5051054;28;20025;-35
2023/12/23 04:34:04;;;;;;;12.95;2.55;;;9.10;95.50;;;;;;5054428;28;20131;-37
2023/12/23 04:36:30;;;;;;;11.02;2.28;;;9.20;95.40;;;;;;5054486;28;20013;-35
2023/12/23 04:38:56;;;;;;;11.80;2.80;;;9.20;95.40;;;;;;5054551;28;20025;-37
2023/12/23 04:41:22;;;;;;;11.50;3.08;;;9.20;95.20;;;;;;5054531;28;20044;-36
2023/12/23 04:43:47;;;;;;;12.65;2.63;;;9.20;95.20;;;;;;5053101;28;20035;-33
2023/12/23 04:46:13;;;;;;;11.70;2.50;;;9.20;95.20;;;;;;5054153;28;20036;-34
2023/12/23 04:48:39;;;;;;;14.50;3.20;;;9.20;95.30;;;;;;5052832;28;20524;-33
2023/12/23 04:51:04;;;;;;;12.95;2.60;;;9.20;95.30;;;;;;5054254;28;20028;-35
2023/12/23 04:53:30;;;;;;;13.18;2.67;;;9.10;95.40;;;;;;5054304;28;20108;-33
2023/12/23 04:55:56;;;;;;;10.95;2.85;;;9.10;95.40;;;;;;5052668;28;20465;-36
2023/12/23 04:58:21;;;;;;;11.25;2.65;;;9.10;95.40;;;;;;5054050;28;20021;-36
2023/12/23 05:00:47;;;;;;;12.95;3.25;;;9.10;95.50;;;;;;5054157;28;20381;-33
2023/12/23 05:03:13;;;;;;;11.52;2.90;;;9.10;95.50;;;;;;5054013;28;20032;-34
2023/12/23 05:05:41;;;;;;;11.35;2.38;;;9.10;95.50;;;;;;5054015;28;20022;-36
2023/12/23 05:08:06;;;;;;;12.40;2.92;;;9.10;95.40;;;;;;5053775;28;20029;-37
2023/12/23 05:10:32;;;;;;;9.95;2.40;;;9.10;95.40;;;;;;5053922;28;20385;-33
2023/12/23 05:12:57;;;;;;;9.13;2.30;;;9.10;95.30;;;;;;5052731;28;20043;-40
2023/12/23 05:15:23;;;;;;;10.77;2.25;;;9.10;95.20;;;;;;5053831;28;20025;-37
2023/12/23 05:17:49;;;;;;;10.15;2.20;;;9.20;95.20;;;;;;5053423;28;20428;-38
2023/12/23 05:20:15;;;;;;;11.60;2.70;;;9.20;95.00;;;;;;5053472;28;20366;-38
2023/12/23 05:22:40;;;;;;;9.43;2.30;;;9.20;94.90;;;;;;5053778;28;20393;-37
2023/12/23 05:25:06;;;;;;;11.43;2.45;;;9.20;94.90;;;;;;5053872;28;20021;-35
2023/12/23 05:27:32;;;;;;;11.82;2.28;;;9.20;95.10;;;;;;5053774;28;20048;-35
2023/12/23 05:29:57;;;;;;;10.90;2.45;;;9.30;94.80;;;;;;5053525;28;20147;-39
2023/12/23 05:32:23;;;;;;;11.02;2.30;;;9.30;94.60;;;;;;5053415;28;20091;-35
2023/12/23 05:34:48;;;;;;;13.80;2.67;;;9.20;94.60;;;;;;5053487;28;20043;-34
2023/12/23 05:37:14;;;;;;;9.18;2.08;;;9.30;94.60;;;;;;5053390;28;20025;-33
2023/12/23 05:39:40;;;;;;;9.82;2.20;;;9.30;94.50;;;;;;5053468;28;20473;-34
2023/12/23 05:42:06;;;;;;;10.73;2.30;;;9.30;94.50;;;;;;5053342;28;20017;-35
2023/12/23 05:44:32;;;;;;;10.95;2.20;;;9.30;94.50;;;;;;5052874;28;20135;-33
2023/12/23 05:46:58;;;;;;;9.93;2.20;;;9.30;94.50;;;;;;5053382;28;20025;-38
2023/12/23 05:49:23;;;;;;;10.88;2.40;;;9.30;94.50;;;;;;5053227;28;20029;-33
2023/12/23 05:51:49;;;;;;;11.25;2.80;;;9.30;94.60;;;;;;5053267;28;20052;-39
2023/12/23 05:54:15;;;;;;;17.33;2.60;;;9.20;94.70;;;;;;5053123;28;20064;-32
2023/12/23 05:56:40;;;;;;;10.60;2.10;;;9.20;94.80;;;;;;5053165;28;20024;-34
2023/12/23 05:59:06;;;;;;;14.57;2.72;;;9.20;94.80;;;;;;5052891;28;20036;-33
2023/12/23 06:01:31;;;;;;;11.65;2.53;;;9.20;95.00;;;;;;5052917;28;20028;-33
2023/12/23 06:03:57;;;;;;;10.90;2.72;;;9.10;95.00;;;;;;5053018;28;20048;-39
2023/12/23 06:06:23;;;;;;;10.98;2.20;;;9.10;95.10;;;;;;5052815;28;20470;-34
2023/12/23 06:08:48;;;;;;;10.63;2.60;;;9.10;95.10;;;;;;5052777;28;20033;-34
2023/12/23 06:11:15;;;;;;;11.68;2.70;;;9.10;95.20;;;;;;5051586;28;20477;-38
2023/12/23 06:13:40;;;;;;;17.48;3.17;;;9.10;95.30;;;;;;5052596;28;20033;-33
2023/12/23 06:16:07;;;;;;;16.13;2.63;;;9.10;95.30;;;;;;5052792;28;20032;-34
2023/12/23 06:18:33;;;;;;;10.52;2.58;;;9.10;95.40;;;;;;5052604;28;20033;-34
2023/12/23 06:20:59;;;;;;;12.13;2.70;;;9.10;95.40;;;;;;5052843;28;20532;-36
2023/12/23 06:23:24;;;;;;;13.75;2.90;;;9.10;95.50;;;;;;5052481;28;20100;-38
2023/12/23 06:25:50;;;;;;;13.90;2.40;;;9.10;95.50;;;;;;5051300;28;20056;-38
2023/12/23 06:28:15;;;;;;;12.30;2.60;;;9.10;95.50;;;;;;5052400;28;20068;-33
2023/12/23 06:30:42;;;;;;;12.80;2.63;;;9.10;95.60;;;;;;5052550;28;20025;-35
2023/12/23 06:33:07;;;;;;;11.70;2.75;;;9.10;95.60;;;;;;5052233;28;20564;-35
2023/12/23 06:35:33;;;;;;;18.05;3.22;;;9.10;95.60;;;;;;5052123;28;20052;-34
2023/12/23 06:37:58;;;;;;;14.05;2.75;;;9.10;95.60;;;;;;5051013;28;20111;-35
2023/12/23 06:40:24;;;;;;;10.80;2.47;;;9.10;95.60;;;;;;5052334;28;20079;-33
2023/12/23 06:42:49;;;;;;;10.93;2.78;;;9.10;95.60;;;;;;5052266;28;20024;-33
2023/12/23 06:45:16;;;;;;;16.60;2.92;;;9.10;95.60;;;;;;5052235;28;20029;-33
2023/12/23 06:47:42;;;;;;;14.23;3.05;;;9.10;95.60;;;;;;5052307;28;20531;-34
2023/12/23 06:50:08;;;;;;;10.45;2.20;;;9.10;95.70;;;;;;5051876;28;20025;-39
2023/12/23 06:52:33;;;;;;;13.13;2.90;;;9.10;95.60;;;;;;5052053;28;20067;-35
2023/12/23 06:54:59;;;;;;;19.33;2.90;;;9.10;95.70;;;;;;5051101;28;20060;-34
2023/12/23 06:57:24;;;;;;;16.42;3.00;;;9.10;95.70;;;;;;5051989;28;20422;-35
2023/12/23 06:59:50;;;;;;;12.35;2.53;;;9.10;95.70;;;;;;5051892;28;20032;-34
2023/12/23 07:02:15;;;;;;;15.75;2.67;;;9.10;95.70;;;;;;5052195;28;20021;-34
2023/12/23 07:04:42;;;;;;;12.15;2.85;;;9.10;95.70;;;;;;5050709;28;20112;-37
2023/12/23 07:07:07;;;;;;;7.95;2.38;;;9.10;95.70;;;;;;5051827;28;20029;-33
2023/12/23 07:09:33;;;;;;;11.15;2.55;;;9.10;95.70;;;;;;5051548;28;20032;-36
2023/12/23 07:11:58;;;;;;;13.95;2.80;;;9.10;95.70;;;;;;5051832;28;20105;-34
2023/12/23 07:14:24;;;;;;;17.50;3.30;;;9.20;95.80;;;;;;5051598;28;20060;-35
2023/12/23 07:16:50;;;;;;;19.67;3.10;;;9.20;95.80;;;;;;5051700;28;20024;-35
2023/12/23 07:19:16;;;;;;;11.88;2.80;;;9.10;95.60;;;;;;5051442;28;20029;-33
2023/12/23 07:21:42;;;;;;;15.93;2.58;;;9.20;95.60;;;;;;5051578;28;20055;-36
2023/12/23 07:24:07;;;;;;;18.15;3.30;;;9.20;95.60;;;;;;5051940;28;20497;-37
2023/12/23 07:26:35;;;;;;;14.63;2.70;;;9.20;95.50;;;;;;5051476;28;20032;-36
2023/12/23 07:29:01;;;;;;;11.07;3.03;;;9.30;95.50;;;;;;5051488;28;20028;-33
2023/12/23 07:31:28;;;;;;;8.45;2.50;;;9.30;95.40;;;;;;5051401;28;20021;-35
2023/12/23 07:33:53;;;;;;;12.45;2.88;;;9.30;95.40;;;;;;5049877;28;20261;-36
2023/12/23 07:36:19;;;;;;;11.82;2.83;;;9.30;95.30;;;;;;5050074;28;20077;-33
2023/12/23 07:38:44;;;;;;;10.48;2.88;;;9.30;95.30;;;;;;5051164;28;20028;-35
2023/12/23 07:41:11;;;;;;;10.13;2.70;;;9.40;95.20;;;;;;5051282;28;20539;-33
2023/12/23 07:43:37;;;;;;;16.10;3.00;;;9.40;95.10;;;;;;5051282;28;20106;-32
2023/12/23 07:46:02;;;;;;;9.52;2.30;;;9.40;95.10;;;;;;5051218;28;20068;-33
2023/12/23 07:48:28;;;;;;;13.25;2.83;;;9.40;95.00;;;;;;5051103;28;20029;-39
2023/12/23 07:50:53;;;;;;;11.18;2.42;;;9.50;94.90;;;;;;5051454;28;20555;-37
2023/12/23 07:53:19;;;;;;;13.02;2.83;;;9.50;94.80;;;;;;5051254;28;20156;-32
2023/12/23 07:55:44;;;;;;;10.30;2.60;;;9.50;94.70;;;;;;5049588;28;20481;-43
2023/12/23 07:58:10;;;;;;;14.27;2.80;;;9.50;94.60;;;;;;5051363;28;20116;-36
2023/12/23 08:00:36;;;;;;;12.40;2.60;;;9.60;94.40;;;;;;5051374;28;20024;-31
2023/12/23 08:03:01;;;;;;;15.20;3.42;;;9.60;94.40;;;;;;5051165;28;20024;-33
2023/12/23 08:05:31;;;;;;;14.32;3.05;;;9.60;94.30;;;;;;5051460;28;20021;-35
2023/12/23 08:07:57;;;;;;;14.02;2.80;;;9.60;94.10;;;;;;5055082;28;20028;-35
2023/12/23 08:10:22;;;;;;;11.73;3.35;;;9.60;93.80;;;;;;5055276;28;20029;-32
2023/12/23 08:12:48;;;;;;;9.82;2.47;;;9.70;93.80;;;;;;5055180;28;20052;-36
2023/12/23 08:15:13;;;;;;;13.30;2.28;;;9.70;93.70;;;;;;5054987;28;20028;-37
2023/12/23 08:17:39;;;;;;;11.52;2.15;;;9.70;93.80;;;;;;5055191;28;20017;-33
2023/12/23 08:20:05;;;;;;;7.90;2.00;;;9.70;93.80;;;;;;5054919;28;20083;-34
2023/12/23 08:22:31;;;;;;;14.23;2.70;;;9.70;93.70;;;;;;5054874;28;20025;-35
2023/12/23 08:24:57;;;;;;;9.02;2.10;;;9.70;93.60;;;;;;5054921;28;20078;-34
2023/12/23 08:27:22;;;;;;;6.57;2.00;;;9.80;93.50;;;;;;5054861;28;20040;-32
2023/12/23 08:29:48;;;;;;;9.63;2.03;;;9.80;93.60;;;;;;5054688;28;20338;-33
2023/12/23 08:32:13;;;;;;;13.93;2.67;;;9.80;93.40;;;;;;5054673;28;20138;-38
2023/12/23 08:34:39;;;;;;;14.27;2.40;;;9.80;93.40;;;;;;5054817;28;20090;-34
2023/12/23 08:37:04;;;;;;;9.85;2.88;;;9.80;93.30;;;;;;5054735;28;20021;-32
2023/12/23 08:39:30;;;;;;;10.00;2.10;;;9.80;93.30;;;;;;5054850;28;20092;-39
2023/12/23 08:41:55;;;;;;;10.52;2.92;;;9.80;93.20;;;;;;5054582;28;20028;-33
2023/12/23 08:44:21;;;;;;;9.82;2.47;;;9.90;93.20;;;;;;5054773;28;20401;-32
2023/12/23 08:46:47;;;;;;;9.45;1.83;;;9.90;92.90;;;;;;5054766;28;20025;-31
2023/12/23 08:49:12;;;;;;;9.82;2.05;;;9.90;92.70;;;;;;5054505;28;20025;-39
2023/12/23 08:51:38;;;;;;;11.52;2.30;;;9.90;92.80;;;;;;5054482;28;20032;-32
2023/12/23 08:54:04;;;;;;;11.07;2.22;;;9.90;92.80;;;;;;5054584;28;20091;-33
2023/12/23 08:56:29;;;;;;;10.27;2.20;;;9.90;92.80;;;;;;5054613;28;20104;-38
2023/12/23 08:58:55;;;;;;;12.00;2.25;;;9.90;92.70;;;;;;5054125;28;20193;-35
2023/12/23 09:01:22;;;;;;;8.40;2.20;;;9.90;92.50;;;;;;5054503;28;20025;-32
2023/12/23 09:03:47;;;;;;;9.93;2.00;;;10.00;92.50;;;;;;5054542;28;20025;-35
2023/12/23 09:06:13;;;;;;;13.40;2.50;;;10.00;92.50;;;;;;5054292;28;20032;-34
2023/12/23 09:08:39;;;;;;;11.57;2.70;;;10.00;92.40;;;;;;5054205;28;20407;-34
2023/12/23 09:11:04;;;;;;;12.32;2.15;;;10.00;92.30;;;;;;5054563;28;20485;-34
2023/12/23 09:13:30;;;;;;;7.28;2.10;;;10.00;92.20;;;;;;5054440;28;20031;-33
2023/12/23 09:15:56;;;;;;;8.07;1.90;;;10.00;92.10;;;;;;5054521;28;20030;-31
2023/12/23 09:18:22;;;;;;;13.70;1.83;;;10.00;92.40;;;;;;5053148;28;20048;-36
2023/12/23 09:20:47;;;;;;;6.00;1.90;;;10.00;92.10;;;;;;5054157;28;20048;-35
2023/12/23 09:23:13;;;;;;;12.98;2.03;;;10.00;92.30;;;;;;5053870;28;20092;-36
2023/12/23 09:25:38;;;;;;;13.40;2.50;;;10.10;92.20;;;;;;5053950;28;20037;-34
2023/12/23 09:28:04;;;;;;;12.52;2.33;;;10.10;92.00;;;;;;5052544;28;20027;-34
2023/12/23 09:30:30;;;;;;;6.15;1.70;;;10.10;92.10;;;;;;5054339;28;20021;-34
2023/12/23 09:32:56;;;;;;;7.40;1.80;;;10.00;92.10;;;;;;5053553;28;20112;-34
2023/12/23 09:35:22;;;;;;;5.18;1.70;;;10.10;92.10;;;;;;5053960;28;20044;-36
2023/12/23 09:37:47;;;;;;;10.38;1.92;;;10.10;92.00;;;;;;5053619;28;20028;-38
2023/12/23 09:40:13;;;;;;;7.60;1.92;;;10.10;92.00;;;;;;5053961;28;20048;-35
2023/12/23 09:42:40;;;;;;;6.82;1.80;;;10.10;92.10;;;;;;5054064;28;20516;-34
2023/12/23 09:45:06;;;;;;;10.75;2.55;;;10.10;92.10;;;;;;5053619;28;20036;-33
2023/12/23 09:47:31;;;;;;;15.52;2.25;;;10.10;91.90;;;;;;5053920;28;20029;-36
2023/12/23 09:49:57;;;;;;;10.23;2.63;;;10.10;92.00;;;;;;5053407;28;20048;-33
2023/12/23 09:52:23;;;;;;;7.38;2.30;;;10.10;92.10;;;;;;5053674;28;20025;-35
2023/12/23 09:54:53;;;;;;;6.35;2.10;;;10.10;92.00;;;;;;5054128;28;20033;-33
2023/12/23 09:57:19;;;;;;;11.52;2.20;;;10.10;92.10;;;;;;5053544;28;20532;-33
2023/12/23 09:59:48;;;;;;;8.88;1.83;;;10.10;92.10;;;;;;5051888;28;20493;-35
2023/12/23 10:02:14;;;;;;;7.57;2.15;;;10.20;92.00;;;;;;5053656;28;20027;-35
2023/12/23 10:04:40;;;;;;;10.65;2.22;;;10.10;91.80;;;;;;5053348;28;20473;-39
2023/12/23 10:07:06;;;;;;;12.82;2.10;;;10.10;91.90;;;;;;5053431;28;20013;-38
2023/12/23 10:09:33;;;;;;;8.05;1.60;;;10.20;92.00;;;;;;5053458;28;20358;-35
2023/12/23 10:12:01;;;;;;;6.35;2.15;;;10.10;91.90;;;;;;5053451;28;20485;-38
2023/12/23 10:14:27;;;;;;;6.38;1.80;;;10.20;91.90;;;;;;5053230;28;20078;-40
2023/12/23 10:16:53;;;;;;;5.97;1.83;;;10.20;91.90;;;;;;5052959;28;20428;-38
2023/12/23 10:19:20;;;;;;;12.52;2.20;;;10.20;92.20;;;;;;5052968;28;20469;-38
2023/12/23 10:21:45;;;;;;;12.02;2.00;;;10.20;91.80;;;;;;5053397;28;20017;-34
2023/12/23 10:24:11;;;;;;;11.90;2.70;;;10.20;91.90;;;;;;5053266;28;20359;-35
2023/12/23 10:26:38;;;;;;;11.13;2.17;;;10.20;91.90;;;;;;5051662;28;20079;-38
2023/12/23 10:29:04;;;;;;;10.98;2.38;;;10.20;91.80;;;;;;5052738;28;20393;-40
2023/12/23 10:31:32;;;;;;;8.50;1.88;;;10.20;91.80;;;;;;5052676;28;20025;-35
2023/12/23 10:34:02;;;;;;;11.93;2.30;;;10.20;91.90;;;;;;5052490;28;20404;-40
2023/12/23 10:36:27;;;;;;;8.13;2.08;;;10.20;92.00;;;;;;5052311;28;20151;-38
2023/12/23 10:39:02;;;;;;;14.05;2.40;;;10.20;91.80;;;;;;5052583;28;20167;-40
2023/12/23 10:41:37;;;;;;;12.57;2.38;;;10.20;91.80;;;;;;5052423;28;20024;-36
2023/12/23 10:44:05;;;;;;;11.50;2.00;;;10.20;91.80;;;;;;5052510;28;20094;-40
2023/12/23 10:46:32;;;;;;;10.27;1.98;;;10.20;91.70;;;;;;5052285;28;20021;-43
2023/12/23 10:48:59;;;;;;;10.75;2.65;;;10.20;91.70;;;;;;5052041;28;20032;-39
2023/12/23 10:51:25;;;;;;;9.18;2.00;;;10.20;91.70;;;;;;5052163;28;20025;-35
2023/12/23 10:53:53;;;;;;;10.88;2.40;;;10.20;91.70;;;;;;5052174;28;20044;-37
2023/12/23 10:56:20;;;;;;;11.55;2.40;;;10.30;91.70;;;;;;5051809;28;20385;-37
2023/12/23 10:58:45;;;;;;;10.38;2.10;;;10.20;91.70;;;;;;5051969;28;20014;-33
2023/12/23 11:01:13;;;;;;;10.30;1.85;;;10.30;91.60;;;;;;5051862;28;20032;-33
2023/12/23 11:03:39;;;;;;;12.35;2.30;;;10.30;91.50;;;;;;5052114;28;20120;-34
2023/12/23 11:06:07;;;;;;;9.02;1.52;;;10.30;91.60;;;;;;5050466;28;20112;-33
2023/12/23 11:08:33;;;;;;;11.25;2.42;;;10.30;91.70;;;;;;5051798;28;20392;-33
2023/12/23 11:10:59;;;;;;;10.70;2.35;;;10.30;91.70;;;;;;5051659;28;20024;-35
2023/12/23 11:13:26;;;;;;;7.80;2.10;;;10.30;91.50;;;;;;5051827;28;20028;-35
2023/12/23 11:15:53;;;;;;;10.20;2.00;;;10.40;91.50;;;;;;5050568;28;20543;-35
2023/12/23 11:18:21;;;;;;;7.68;1.80;;;10.40;91.80;;;;;;5051784;28;20017;-36
2023/12/23 11:20:49;;;;;;;11.63;2.22;;;10.40;91.50;;;;;;5051853;28;20025;-35
2023/12/23 11:23:30;;;;;;;6.30;1.50;;;10.40;91.50;;;;;;5050390;28;20025;-35
2023/12/23 11:25:56;;;;;;;9.20;1.70;;;10.50;91.40;;;;;;5050288;28;20554;-35
2023/12/23 11:28:24;;;;;;;10.13;2.10;;;10.50;91.30;;;;;;5051530;28;20469;-33
2023/12/23 11:30:53;;;;;;;6.72;1.98;;;10.50;91.00;;;;;;5051702;28;20416;-34
2023/12/23 11:33:20;;;;;;;6.53;1.50;;;10.60;90.90;;;;;;5051442;28;20051;-35
2023/12/23 11:35:55;;;;;;;5.63;1.50;;;10.60;91.00;;;;;;5050267;28;20021;-34
2023/12/23 11:38:20;;;;;;;5.68;1.70;;;10.60;91.00;;;;;;5051424;28;20477;-35
2023/12/23 11:40:48;;;;;;;10.23;2.00;;;10.60;91.00;;;;;;5051150;28;20075;-35
2023/12/23 11:43:15;;;;;;;6.85;1.95;;;10.60;90.40;;;;;;5051548;28;20381;-34
2023/12/23 11:45:44;;;;;;;7.93;1.80;;;10.60;90.30;;;;;;5051466;28;20612;-34
2023/12/23 11:48:10;;;;;;;7.93;1.80;;;10.60;90.50;;;;;;5051151;28;20025;-34
2023/12/23 11:50:35;;;;;;;6.25;1.42;;;10.70;90.50;;;;;;5051449;28;20499;-34
2023/12/23 11:53:01;;;;;;;5.00;1.48;;;10.70;90.50;;;;;;5051484;28;20021;-32
2023/12/23 11:55:28;;;;;;;7.18;1.90;;;10.80;90.30;;;;;;5051083;28;20025;-33
2023/12/23 11:57:53;;;;;;;8.45;1.60;;;10.80;90.10;;;;;;5051219;28;20017;-37
2023/12/23 12:00:19;;;;;;;5.82;1.27;;;10.80;89.70;;;;;;5051318;28;20028;-37
2023/12/23 12:02:45;;;;;;;6.35;1.40;;;10.80;89.40;;;;;;5051123;28;20017;-34
2023/12/23 12:05:11;;;;;;;9.07;2.15;;;10.90;88.80;;;;;;5051271;28;20044;-32
2023/12/23 12:07:36;;;;;;;6.00;1.33;;;10.90;88.80;;;;;;5051033;28;20027;-35
2023/12/23 12:10:02;;;;;;;7.88;1.77;;;10.90;87.60;;;;;;5049873;28;20029;-32
2023/12/23 12:12:28;;;;;;;4.30;1.15;;;11.00;88.20;;;;;;5049768;28;20435;-33
2023/12/23 12:14:54;;;;;;;8.45;1.50;;;10.90;88.10;;;;;;5051299;28;20025;-34
2023/12/23 12:17:19;;;;;;;9.45;1.25;;;11.00;88.60;;;;;;5051122;28;20017;-41
2023/12/23 12:19:45;;;;;;;6.68;1.58;;;10.90;88.30;;;;;;5051047;28;20021;-44
2023/12/23 12:22:11;;;;;;;4.68;1.10;;;10.90;88.60;;;;;;5051395;28;20029;-32
2023/12/23 12:24:37;;;;;;;6.63;1.50;;;11.00;88.70;;;;;;5051135;28;20493;-32
2023/12/23 12:27:03;;;;;;;5.63;1.25;;;11.00;88.30;;;;;;5051311;28;20366;-35
2023/12/23 12:29:29;;;;;;;4.88;1.33;;;11.00;88.10;;;;;;5051166;28;20056;-33
2023/12/23 12:31:57;;;;;;;6.32;1.50;;;11.00;87.90;;;;;;5051157;28;20446;-37
2023/12/23 12:34:23;;;;;;;6.65;1.23;;;11.00;87.80;;;;;;5051050;28;20032;-34
2023/12/23 12:36:51;;;;;;;5.97;1.30;;;11.00;87.40;;;;;;5051019;28;20021;-34
2023/12/23 12:39:19;;;;;;;9.63;1.35;;;11.10;87.50;;;;;;5051027;28;20025;-36
2023/12/23 12:41:45;;;;;;;8.48;1.38;;;11.10;87.40;;;;;;5051112;28;20505;-34